sensor_id;sensor_type;location;lat;lon;timestamp;pressure;altitude;pressure_sealevel;temperature;humidity
42001;BME280;27689;48.390;10.856;2023-02-02T00:02:00;96557.09;;;4.22;84.96
42001;BME280;27689;48.390;10.856;2023-02-02T00:04:44;96567.84;;;4.16;85.21
42001;BME280;27689;48.390;10.856;2023-02-02T00:07:28;96568.31;;;4.23;85.39
42001;BME280;27689;48.390;10.856;2023-02-02T00:10:12;96553.34;;;4.14;85.92
42001;BME280;27689;48.390;10.856;2023-02-02T00:12:56;96564.72;;;4.11;86.49
42001;BME280;27689;48.390;10.856;2023-02-02T00:15:40;96556.03;;;4.12;86.01
42001;BME280;27689;48.390;10.856;2023-02-02T00:18:24;96553.03;;;4.18;86.04
42001;BME280;27689;48.390;10.856;2023-02-02T00:21:08;96546.13;;;4.05;86.72
42001;BME280;27689;48.390;10.856;2023-02-02T00:23:52;96542.97;;;4.14;86.30
42001;BME280;27689;48.390;10.856;2023-02-02T00:26:38;96552.03;;;4.07;87.14
42001;BME280;27689;48.390;10.856;2023-02-02T00:29:27;96545.47;;;4.15;86.96
42001;BME280;27689;48.390;10.856;2023-02-02T00:32:11;96547.84;;;4.18;86.36
42001;BME280;27689;48.390;10.856;2023-02-02T00:34:55;96539.97;;;4.20;85.83
42001;BME280;27689;48.390;10.856;2023-02-02T00:37:39;96550.38;;;4.06;86.88
42001;BME280;27689;48.390;10.856;2023-02-02T00:40:23;96542.97;;;4.14;86.86
42001;BME280;27689;48.390;10.856;2023-02-02T00:43:07;96541.31;;;4.13;85.43
42001;BME280;27689;48.390;10.856;2023-02-02T00:45:51;96543.59;;;4.17;85.54
42001;BME280;27689;48.390;10.856;2023-02-02T00:48:35;96540.75;;;4.08;86.25
42001;BME280;27689;48.390;10.856;2023-02-02T00:51:18;96540.97;;;4.17;85.93
42001;BME280;27689;48.390;10.856;2023-02-02T00:54:03;96552.28;;;4.16;85.77
42001;BME280;27689;48.390;10.856;2023-02-02T00:56:47;96556.94;;;4.11;85.89
42001;BME280;27689;48.390;10.856;2023-02-02T00:59:31;96563.22;;;4.21;85.76
42001;BME280;27689;48.390;10.856;2023-02-02T01:02:15;96549.41;;;4.21;85.54
42001;BME280;27689;48.390;10.856;2023-02-02T01:04:59;96554.53;;;4.08;85.96
42001;BME280;27689;48.390;10.856;2023-02-02T01:07:43;96548.81;;;4.03;86.19
42001;BME280;27689;48.390;10.856;2023-02-02T01:10:27;96553.91;;;4.05;86.59
42001;BME280;27689;48.390;10.856;2023-02-02T01:13:11;96549.34;;;4.08;86.12
42001;BME280;27689;48.390;10.856;2023-02-02T01:15:57;96548.53;;;4.08;86.18
42001;BME280;27689;48.390;10.856;2023-02-02T01:18:41;96547.75;;;4.20;85.32
42001;BME280;27689;48.390;10.856;2023-02-02T01:21:25;96555.19;;;4.12;85.64
42001;BME280;27689;48.390;10.856;2023-02-02T01:24:09;96558.84;;;4.22;85.19
42001;BME280;27689;48.390;10.856;2023-02-02T01:26:53;96555.53;;;4.20;85.09
42001;BME280;27689;48.390;10.856;2023-02-02T01:29:37;96559.59;;;4.24;84.59
42001;BME280;27689;48.390;10.856;2023-02-02T01:32:21;96557.75;;;4.26;84.64
42001;BME280;27689;48.390;10.856;2023-02-02T01:35:06;96563.06;;;4.37;84.51
42001;BME280;27689;48.390;10.856;2023-02-02T01:37:50;96556.44;;;4.19;85.82
42001;BME280;27689;48.390;10.856;2023-02-02T01:40:34;96559.22;;;4.30;85.31
42001;BME280;27689;48.390;10.856;2023-02-02T01:49:08;96551.72;;;4.25;85.81
42001;BME280;27689;48.390;10.856;2023-02-02T01:51:56;96558.75;;;4.23;85.68
42001;BME280;27689;48.390;10.856;2023-02-02T01:54:46;96547.50;;;4.10;86.57
42001;BME280;27689;48.390;10.856;2023-02-02T01:57:44;96554.59;;;4.21;86.10
42001;BME280;27689;48.390;10.856;2023-02-02T02:00:29;96546.91;;;4.19;86.53
42001;BME280;27689;48.390;10.856;2023-02-02T02:03:16;96550.66;;;4.15;86.41
42001;BME280;27689;48.390;10.856;2023-02-02T02:06:08;96545.66;;;4.12;87.13
42001;BME280;27689;48.390;10.856;2023-02-02T02:09:03;96540.66;;;4.09;87.00
42001;BME280;27689;48.390;10.856;2023-02-02T02:11:47;96545.34;;;4.17;86.91
42001;BME280;27689;48.390;10.856;2023-02-02T02:14:31;96552.88;;;4.07;87.88
42001;BME280;27689;48.390;10.856;2023-02-02T02:34:24;96554.53;;;4.08;88.23
42001;BME280;27689;48.390;10.856;2023-02-02T02:42:58;96545.94;;;4.08;88.96
42001;BME280;27689;48.390;10.856;2023-02-02T02:45:44;96558.91;;;4.08;89.33
42001;BME280;27689;48.390;10.856;2023-02-02T02:48:29;96548.53;;;4.08;89.60
42001;BME280;27689;48.390;10.856;2023-02-02T02:54:34;96555.41;;;3.95;91.30
42001;BME280;27689;48.390;10.856;2023-02-02T03:00:35;96548.66;;;3.92;93.15
42001;BME280;27689;48.390;10.856;2023-02-02T03:03:51;96546.97;;;3.91;93.45
42001;BME280;27689;48.390;10.856;2023-02-02T03:06:43;96540.97;;;3.90;93.75
42001;BME280;27689;48.390;10.856;2023-02-02T03:09:31;96532.91;;;3.95;93.05
42001;BME280;27689;48.390;10.856;2023-02-02T03:12:17;96538.38;;;3.90;93.76
42001;BME280;27689;48.390;10.856;2023-02-02T03:15:04;96541.53;;;3.96;93.74
42001;BME280;27689;48.390;10.856;2023-02-02T03:17:50;96538.47;;;3.89;94.46
42001;BME280;27689;48.390;10.856;2023-02-02T03:20:35;96540.31;;;3.87;94.66
42001;BME280;27689;48.390;10.856;2023-02-02T03:23:19;96537.91;;;3.98;94.46
42001;BME280;27689;48.390;10.856;2023-02-02T03:26:05;96540.22;;;3.88;94.66
42001;BME280;27689;48.390;10.856;2023-02-02T03:28:50;96523.28;;;3.97;94.55
42001;BME280;27689;48.390;10.856;2023-02-02T03:31:34;96526.84;;;3.82;95.70
42001;BME280;27689;48.390;10.856;2023-02-02T03:34:18;96520.31;;;3.89;95.39
42001;BME280;27689;48.390;10.856;2023-02-02T03:37:02;96524.34;;;3.80;95.95
42001;BME280;27689;48.390;10.856;2023-02-02T03:39:46;96513.72;;;3.71;97.28
42001;BME280;27689;48.390;10.856;2023-02-02T03:42:30;96506.03;;;3.69;96.79
42001;BME280;27689;48.390;10.856;2023-02-02T03:45:14;96520.22;;;3.90;95.27
42001;BME280;27689;48.390;10.856;2023-02-02T03:47:58;96520.63;;;3.84;95.43
42001;BME280;27689;48.390;10.856;2023-02-02T03:50:42;96524.97;;;3.84;95.69
42001;BME280;27689;48.390;10.856;2023-02-02T03:53:26;96524.16;;;3.83;95.72
42001;BME280;27689;48.390;10.856;2023-02-02T03:56:09;96523.75;;;3.89;95.92
42001;BME280;27689;48.390;10.856;2023-02-02T03:58:53;96528.94;;;3.89;96.02
42001;BME280;27689;48.390;10.856;2023-02-02T04:01:37;96502.91;;;3.91;96.73
42001;BME280;27689;48.390;10.856;2023-02-02T04:04:21;96521.25;;;3.88;95.36
42001;BME280;27689;48.390;10.856;2023-02-02T04:07:05;96535.59;;;3.94;95.21
42001;BME280;27689;48.390;10.856;2023-02-02T04:09:49;96532.06;;;3.95;94.55
42001;BME280;27689;48.390;10.856;2023-02-02T04:12:33;96540.59;;;3.97;94.47
42001;BME280;27689;48.390;10.856;2023-02-02T04:15:17;96539.75;;;3.96;94.18
42001;BME280;27689;48.390;10.856;2023-02-02T04:18:01;96541.13;;;4.02;93.76
42001;BME280;27689;48.390;10.856;2023-02-02T04:20:45;96532.50;;;4.01;93.12
42001;BME280;27689;48.390;10.856;2023-02-02T04:23:30;96539.25;;;4.04;93.00
42001;BME280;27689;48.390;10.856;2023-02-02T04:26:14;96543.00;;;4.00;94.09
42001;BME280;27689;48.390;10.856;2023-02-02T04:28:57;96536.25;;;3.97;95.19
42001;BME280;27689;48.390;10.856;2023-02-02T04:31:41;96544.94;;;3.96;95.70
42001;BME280;27689;48.390;10.856;2023-02-02T04:34:26;96553.38;;;4.00;96.42
42001;BME280;27689;48.390;10.856;2023-02-02T04:37:10;96553.38;;;4.00;95.85
42001;BME280;27689;48.390;10.856;2023-02-02T04:39:54;96542.25;;;3.98;96.21
42001;BME280;27689;48.390;10.856;2023-02-02T04:42:38;96558.44;;;4.01;95.71
42001;BME280;27689;48.390;10.856;2023-02-02T04:45:22;96581.06;;;3.99;95.73
42001;BME280;27689;48.390;10.856;2023-02-02T04:48:05;96584.75;;;3.95;96.08
42001;BME280;27689;48.390;10.856;2023-02-02T04:50:49;96587.69;;;4.03;96.17
42001;BME280;27689;48.390;10.856;2023-02-02T04:53:33;96602.50;;;4.01;96.05
42001;BME280;27689;48.390;10.856;2023-02-02T04:56:18;96582.81;;;3.99;96.04
42001;BME280;27689;48.390;10.856;2023-02-02T04:59:02;96581.88;;;4.00;96.32
42001;BME280;27689;48.390;10.856;2023-02-02T05:01:46;96592.03;;;4.03;95.85
42001;BME280;27689;48.390;10.856;2023-02-02T05:04:30;96590.50;;;4.00;96.49
42001;BME280;27689;48.390;10.856;2023-02-02T05:07:14;96593.72;;;4.04;95.78
42001;BME280;27689;48.390;10.856;2023-02-02T05:09:58;96596.94;;;4.07;95.98
42001;BME280;27689;48.390;10.856;2023-02-02T05:12:42;96589.16;;;4.07;95.64
42001;BME280;27689;48.390;10.856;2023-02-02T05:15:26;96602.88;;;4.09;95.14
42001;BME280;27689;48.390;10.856;2023-02-02T05:18:09;96587.22;;;4.11;94.99
42001;BME280;27689;48.390;10.856;2023-02-02T05:20:53;96590.75;;;4.10;94.99
42001;BME280;27689;48.390;10.856;2023-02-02T05:23:37;96576.38;;;4.18;94.22
42001;BME280;27689;48.390;10.856;2023-02-02T05:26:24;96589.03;;;4.23;93.98
42001;BME280;27689;48.390;10.856;2023-02-02T05:29:08;96590.81;;;4.22;93.95
42001;BME280;27689;48.390;10.856;2023-02-02T05:31:52;96604.06;;;4.18;93.75
42001;BME280;27689;48.390;10.856;2023-02-02T05:34:37;96588.13;;;4.24;93.40
42001;BME280;27689;48.390;10.856;2023-02-02T05:37:21;96587.28;;;4.23;94.09
42001;BME280;27689;48.390;10.856;2023-02-02T05:40:05;96592.19;;;4.28;94.14
42001;BME280;27689;48.390;10.856;2023-02-02T05:42:49;96588.50;;;4.18;94.87
42001;BME280;27689;48.390;10.856;2023-02-02T05:45:33;96591.00;;;4.19;94.45
42001;BME280;27689;48.390;10.856;2023-02-02T05:48:17;96588.34;;;4.07;95.92
42001;BME280;27689;48.390;10.856;2023-02-02T05:51:10;96588.81;;;4.13;95.26
42001;BME280;27689;48.390;10.856;2023-02-02T05:53:55;96599.78;;;4.17;95.40
42001;BME280;27689;48.390;10.856;2023-02-02T05:56:39;96608.63;;;4.14;95.60
42001;BME280;27689;48.390;10.856;2023-02-02T05:59:23;96612.56;;;4.20;94.97
42001;BME280;27689;48.390;10.856;2023-02-02T06:02:06;96619.16;;;4.11;95.70
42001;BME280;27689;48.390;10.856;2023-02-02T06:04:51;96614.72;;;4.13;96.18
42001;BME280;27689;48.390;10.856;2023-02-02T06:07:35;96614.50;;;4.16;95.54
42001;BME280;27689;48.390;10.856;2023-02-02T06:10:19;96621.94;;;4.08;95.60
42001;BME280;27689;48.390;10.856;2023-02-02T06:13:03;96613.31;;;4.22;95.27
42001;BME280;27689;48.390;10.856;2023-02-02T06:15:48;96621.09;;;4.22;95.49
42001;BME280;27689;48.390;10.856;2023-02-02T06:18:33;96611.72;;;4.19;95.40
42001;BME280;27689;48.390;10.856;2023-02-02T06:21:17;96613.97;;;4.25;95.46
42001;BME280;27689;48.390;10.856;2023-02-02T06:24:02;96611.47;;;4.24;95.16
42001;BME280;27689;48.390;10.856;2023-02-02T06:26:47;96612.56;;;4.20;95.58
42001;BME280;27689;48.390;10.856;2023-02-02T06:29:31;96615.34;;;4.17;95.62
42001;BME280;27689;48.390;10.856;2023-02-02T06:32:15;96628.88;;;4.22;95.92
42001;BME280;27689;48.390;10.856;2023-02-02T06:34:58;96626.03;;;4.12;96.54
42001;BME280;27689;48.390;10.856;2023-02-02T06:37:42;96624.19;;;4.14;96.37
42001;BME280;27689;48.390;10.856;2023-02-02T06:40:27;96618.88;;;4.16;97.09
42001;BME280;27689;48.390;10.856;2023-02-02T06:43:10;96622.78;;;4.09;97.27
42001;BME280;27689;48.390;10.856;2023-02-02T06:45:57;96632.56;;;4.18;96.93
42001;BME280;27689;48.390;10.856;2023-02-02T06:48:41;96641.28;;;4.17;96.63
42001;BME280;27689;48.390;10.856;2023-02-02T06:51:25;96625.94;;;4.14;96.51
42001;BME280;27689;48.390;10.856;2023-02-02T06:54:09;96633.97;;;4.09;96.07
42001;BME280;27689;48.390;10.856;2023-02-02T06:56:54;96645.00;;;4.13;96.12
42001;BME280;27689;48.390;10.856;2023-02-02T06:59:38;96648.53;;;4.12;96.15
42001;BME280;27689;48.390;10.856;2023-02-02T07:02:24;96657.41;;;4.08;96.59
42001;BME280;27689;48.390;10.856;2023-02-02T07:05:08;96643.78;;;4.18;96.28
42001;BME280;27689;48.390;10.856;2023-02-02T07:07:53;96648.72;;;4.09;95.99
42001;BME280;27689;48.390;10.856;2023-02-02T07:10:37;96656.75;;;4.18;95.46
42001;BME280;27689;48.390;10.856;2023-02-02T07:13:21;96650.09;;;4.14;95.02
42001;BME280;27689;48.390;10.856;2023-02-02T07:16:05;96650.19;;;4.13;95.40
42001;BME280;27689;48.390;10.856;2023-02-02T07:18:50;96656.47;;;4.23;94.91
42001;BME280;27689;48.390;10.856;2023-02-02T07:21:34;96653.97;;;4.21;95.07
42001;BME280;27689;48.390;10.856;2023-02-02T07:24:18;96660.00;;;4.22;95.11
42001;BME280;27689;48.390;10.856;2023-02-02T07:27:03;96657.13;;;4.27;94.50
42001;BME280;27689;48.390;10.856;2023-02-02T07:29:47;96656.28;;;4.26;94.48
42001;BME280;27689;48.390;10.856;2023-02-02T07:32:31;96647.84;;;4.22;94.62
42001;BME280;27689;48.390;10.856;2023-02-02T07:35:16;96657.03;;;4.28;94.58
42001;BME280;27689;48.390;10.856;2023-02-02T07:38:00;96649.25;;;4.28;94.81
42001;BME280;27689;48.390;10.856;2023-02-02T07:40:44;96658.78;;;4.28;94.07
42001;BME280;27689;48.390;10.856;2023-02-02T07:43:29;96653.59;;;4.28;94.46
42001;BME280;27689;48.390;10.856;2023-02-02T07:46:13;96662.66;;;4.20;94.69
42001;BME280;27689;48.390;10.856;2023-02-02T07:48:58;96661.47;;;4.26;94.62
42001;BME280;27689;48.390;10.856;2023-02-02T07:51:43;96662.84;;;4.32;94.95
42001;BME280;27689;48.390;10.856;2023-02-02T07:54:27;96653.66;;;4.40;94.06
42001;BME280;27689;48.390;10.856;2023-02-02T07:57:11;96670.72;;;4.44;93.71
42001;BME280;27689;48.390;10.856;2023-02-02T07:59:56;96666.81;;;4.37;94.33
42001;BME280;27689;48.390;10.856;2023-02-02T08:02:40;96656.25;;;4.40;94.10
42001;BME280;27689;48.390;10.856;2023-02-02T08:05:24;96672.47;;;4.44;94.21
42001;BME280;27689;48.390;10.856;2023-02-02T08:08:08;96684.03;;;4.52;93.96
42001;BME280;27689;48.390;10.856;2023-02-02T08:10:53;96692.91;;;4.48;94.31
42001;BME280;27689;48.390;10.856;2023-02-02T08:13:38;96694.59;;;4.49;94.01
42001;BME280;27689;48.390;10.856;2023-02-02T08:16:23;96699.97;;;4.46;94.91
42001;BME280;27689;48.390;10.856;2023-02-02T08:19:09;96686.91;;;4.48;95.36
42001;BME280;27689;48.390;10.856;2023-02-02T08:21:53;96688.13;;;4.42;95.36
42001;BME280;27689;48.390;10.856;2023-02-02T08:24:37;96707.66;;;4.48;95.99
42001;BME280;27689;48.390;10.856;2023-02-02T08:27:23;96708.22;;;4.53;95.92
42001;BME280;27689;48.390;10.856;2023-02-02T08:30:07;96693.75;;;4.49;96.73
42001;BME280;27689;48.390;10.856;2023-02-02T08:32:52;96704.97;;;4.49;97.46
42001;BME280;27689;48.390;10.856;2023-02-02T08:35:42;96699.44;;;4.41;98.17
42001;BME280;27689;48.390;10.856;2023-02-02T08:38:27;96708.31;;;4.37;99.10
42001;BME280;27689;48.390;10.856;2023-02-02T08:41:13;96715.00;;;4.41;99.19
42001;BME280;27689;48.390;10.856;2023-02-02T08:43:58;96706.84;;;4.33;99.61
42001;BME280;27689;48.390;10.856;2023-02-02T08:46:42;96708.91;;;4.28;100.00
42001;BME280;27689;48.390;10.856;2023-02-02T08:49:26;96720.09;;;4.29;100.00
42001;BME280;27689;48.390;10.856;2023-02-02T08:52:10;96713.84;;;4.45;100.00
42001;BME280;27689;48.390;10.856;2023-02-02T08:54:54;96718.13;;;4.32;100.00
42001;BME280;27689;48.390;10.856;2023-02-02T08:57:38;96732.16;;;4.30;100.00
42001;BME280;27689;48.390;10.856;2023-02-02T09:00:23;96728.59;;;4.31;100.00
42001;BME280;27689;48.390;10.856;2023-02-02T09:03:07;96723.63;;;4.28;100.00
42001;BME280;27689;48.390;10.856;2023-02-02T09:05:51;96737.69;;;4.38;100.00
42001;BME280;27689;48.390;10.856;2023-02-02T09:08:35;96731.31;;;4.43;100.00
42001;BME280;27689;48.390;10.856;2023-02-02T09:11:20;96729.72;;;4.41;100.00
42001;BME280;27689;48.390;10.856;2023-02-02T09:14:05;96735.44;;;4.46;100.00
42001;BME280;27689;48.390;10.856;2023-02-02T09:16:49;96734.91;;;4.41;100.00
42001;BME280;27689;48.390;10.856;2023-02-02T09:19:33;96728.81;;;4.42;100.00
42001;BME280;27689;48.390;10.856;2023-02-02T09:22:16;96723.22;;;4.34;100.00
42001;BME280;27689;48.390;10.856;2023-02-02T09:25:00;96724.22;;;4.45;100.00
42001;BME280;27689;48.390;10.856;2023-02-02T09:27:44;96718.34;;;4.43;100.00
42001;BME280;27689;48.390;10.856;2023-02-02T09:30:28;96719.69;;;4.49;100.00
42001;BME280;27689;48.390;10.856;2023-02-02T09:33:12;96718.34;;;4.43;100.00
42001;BME280;27689;48.390;10.856;2023-02-02T09:36:06;96732.31;;;4.55;100.00
42001;BME280;27689;48.390;10.856;2023-02-02T09:38:50;96743.78;;;4.51;100.00
42001;BME280;27689;48.390;10.856;2023-02-02T09:45:05;96740.91;;;4.70;99.64
42001;BME280;27689;48.390;10.856;2023-02-02T09:47:56;96741.91;;;4.67;99.52
42001;BME280;27689;48.390;10.856;2023-02-02T09:50:49;96744.84;;;4.75;99.32
42001;BME280;27689;48.390;10.856;2023-02-02T09:53:47;96751.19;;;4.71;98.86
42001;BME280;27689;48.390;10.856;2023-02-02T09:56:40;96757.75;;;4.63;99.66
42001;BME280;27689;48.390;10.856;2023-02-02T09:59:35;96751.63;;;4.78;98.46
42001;BME280;27689;48.390;10.856;2023-02-02T10:02:23;96754.22;;;4.78;98.61
42001;BME280;27689;48.390;10.856;2023-02-02T10:05:20;96744.94;;;4.88;98.57
42001;BME280;27689;48.390;10.856;2023-02-02T10:08:06;96752.72;;;4.88;99.07
42001;BME280;27689;48.390;10.856;2023-02-02T10:10:54;96753.56;;;4.88;99.34
42001;BME280;27689;48.390;10.856;2023-02-02T10:13:40;96757.53;;;4.94;99.36
42001;BME280;27689;48.390;10.856;2023-02-02T10:16:26;96765.16;;;4.83;100.00
42001;BME280;27689;48.390;10.856;2023-02-02T10:19:11;96764.88;;;4.87;100.00
42001;BME280;27689;48.390;10.856;2023-02-02T10:22:04;96763.22;;;4.86;100.00
42001;BME280;27689;48.390;10.856;2023-02-02T10:24:53;96762.56;;;4.83;100.00
42001;BME280;27689;48.390;10.856;2023-02-02T10:27:39;96758.28;;;4.82;100.00
42001;BME280;27689;48.390;10.856;2023-02-02T10:30:38;96754.69;;;4.84;100.00
42001;BME280;27689;48.390;10.856;2023-02-02T10:33:36;96748.66;;;4.84;100.00
42001;BME280;27689;48.390;10.856;2023-02-02T10:39:32;96758.13;;;4.85;100.00
42001;BME280;27689;48.390;10.856;2023-02-02T10:46:04;96755.25;;;4.89;100.00
42001;BME280;27689;48.390;10.856;2023-02-02T10:48:49;96749.00;;;4.92;100.00
42001;BME280;27689;48.390;10.856;2023-02-02T10:51:35;96744.75;;;4.77;100.00
42001;BME280;27689;48.390;10.856;2023-02-02T10:54:41;96748.47;;;4.87;100.00
42001;BME280;27689;48.390;10.856;2023-02-02T10:57:57;96747.31;;;4.91;100.00
42001;BME280;27689;48.390;10.856;2023-02-02T11:00:47;96751.03;;;5.01;100.00
42001;BME280;27689;48.390;10.856;2023-02-02T11:03:33;96753.81;;;4.98;100.00
42001;BME280;27689;48.390;10.856;2023-02-02T11:06:17;96742.88;;;4.93;100.00
42001;BME280;27689;48.390;10.856;2023-02-02T11:09:26;96748.81;;;4.95;100.00
42001;BME280;27689;48.390;10.856;2023-02-02T11:12:29;96746.31;;;4.93;100.00
42001;BME280;27689;48.390;10.856;2023-02-02T11:15:25;96761.22;;;4.90;100.00
42001;BME280;27689;48.390;10.856;2023-02-02T11:18:27;96763.13;;;4.88;100.00
42001;BME280;27689;48.390;10.856;2023-02-02T11:21:28;96759.19;;;4.95;100.00
42001;BME280;27689;48.390;10.856;2023-02-02T11:24:39;96777.09;;;5.00;100.00
42001;BME280;27689;48.390;10.856;2023-02-02T11:30:30;96771.31;;;5.09;100.00
42001;BME280;27689;48.390;10.856;2023-02-02T11:36:20;96765.88;;;4.99;100.00
42001;BME280;27689;48.390;10.856;2023-02-02T11:39:15;96765.50;;;4.91;100.00
42001;BME280;27689;48.390;10.856;2023-02-02T11:42:19;96759.38;;;4.92;100.00
42001;BME280;27689;48.390;10.856;2023-02-02T11:45:04;96765.03;;;4.99;100.00
42001;BME280;27689;48.390;10.856;2023-02-02T11:47:49;96757.97;;;5.01;100.00
42001;BME280;27689;48.390;10.856;2023-02-02T11:50:34;96759.94;;;4.97;100.00
42001;BME280;27689;48.390;10.856;2023-02-02T11:53:33;96763.56;;;4.94;100.00
42001;BME280;27689;48.390;10.856;2023-02-02T11:56:21;96753.25;;;4.93;100.00
42001;BME280;27689;48.390;10.856;2023-02-02T11:59:47;96763.81;;;4.90;100.00
42001;BME280;27689;48.390;10.856;2023-02-02T12:02:31;96774.59;;;4.98;100.00
42001;BME280;27689;48.390;10.856;2023-02-02T12:08:02;96755.75;;;4.94;100.00
42001;BME280;27689;48.390;10.856;2023-02-02T12:10:53;96754.56;;;5.00;100.00
42001;BME280;27689;48.390;10.856;2023-02-02T12:16:47;96743.53;;;4.96;100.00
42001;BME280;27689;48.390;10.856;2023-02-02T12:23:36;96760.28;;;5.05;100.00
42001;BME280;27689;48.390;10.856;2023-02-02T12:26:26;96768.75;;;4.94;100.00
42001;BME280;27689;48.390;10.856;2023-02-02T12:29:29;96751.59;;;4.92;100.00
42001;BME280;27689;48.390;10.856;2023-02-02T12:32:30;96748.63;;;4.98;100.00
42001;BME280;27689;48.390;10.856;2023-02-02T12:35:55;96750.47;;;4.96;100.00
42001;BME280;27689;48.390;10.856;2023-02-02T12:50:52;96773.28;;;4.91;100.00
42001;BME280;27689;48.390;10.856;2023-02-02T12:56:56;96757.38;;;4.83;100.00
42001;BME280;27689;48.390;10.856;2023-02-02T13:03:14;96761.25;;;4.76;100.00
42001;BME280;27689;48.390;10.856;2023-02-02T13:09:16;96767.19;;;4.78;100.00
42001;BME280;27689;48.390;10.856;2023-02-02T13:12:08;96779.75;;;4.71;100.00
42001;BME280;27689;48.390;10.856;2023-02-02T13:14:55;96778.16;;;4.69;100.00
42001;BME280;27689;48.390;10.856;2023-02-02T13:17:53;96790.94;;;4.72;100.00
42001;BME280;27689;48.390;10.856;2023-02-02T13:20:41;96793.47;;;4.73;100.00
42001;BME280;27689;48.390;10.856;2023-02-02T13:23:31;96785.84;;;4.70;100.00
42001;BME280;27689;48.390;10.856;2023-02-02T13:26:19;96797.44;;;4.65;100.00
42001;BME280;27689;48.390;10.856;2023-02-02T13:31:58;96787.22;;;4.76;100.00
42001;BME280;27689;48.390;10.856;2023-02-02T13:35:03;96800.00;;;4.79;100.00
42001;BME280;27689;48.390;10.856;2023-02-02T13:37:53;96819.31;;;4.75;100.00
42001;BME280;27689;48.390;10.856;2023-02-02T13:40:41;96809.38;;;4.81;100.00
42001;BME280;27689;48.390;10.856;2023-02-02T13:43:50;96816.16;;;4.84;100.00
42001;BME280;27689;48.390;10.856;2023-02-02T13:46:47;96821.44;;;4.82;100.00
42001;BME280;27689;48.390;10.856;2023-02-02T13:49:46;96816.25;;;4.82;100.00
42001;BME280;27689;48.390;10.856;2023-02-02T14:01:57;96817.72;;;4.86;100.00
42001;BME280;27689;48.390;10.856;2023-02-02T14:04:41;96825.78;;;4.82;100.00
42001;BME280;27689;48.390;10.856;2023-02-02T14:07:39;96811.13;;;4.81;100.00
42001;BME280;27689;48.390;10.856;2023-02-02T14:10:37;96819.94;;;4.78;100.00
42001;BME280;27689;48.390;10.856;2023-02-02T14:13:29;96827.72;;;4.78;100.00
42001;BME280;27689;48.390;10.856;2023-02-02T14:22:17;96836.44;;;4.77;100.00
42001;BME280;27689;48.390;10.856;2023-02-02T14:25:07;96843.22;;;4.80;100.00
42001;BME280;27689;48.390;10.856;2023-02-02T14:28:11;96836.00;;;4.71;100.00
42001;BME280;27689;48.390;10.856;2023-02-02T14:46:32;96853.69;;;4.78;100.00
42001;BME280;27689;48.390;10.856;2023-02-02T14:49:20;96862.03;;;4.69;100.00
42001;BME280;27689;48.390;10.856;2023-02-02T14:52:19;96863.06;;;4.81;100.00
42001;BME280;27689;48.390;10.856;2023-02-02T14:55:04;96866.66;;;4.78;100.00
42001;BME280;27689;48.390;10.856;2023-02-02T14:57:58;96858.44;;;4.57;100.00
42001;BME280;27689;48.390;10.856;2023-02-02T15:00:59;96875.75;;;4.57;100.00
42001;BME280;27689;48.390;10.856;2023-02-02T15:03:48;96887.25;;;4.53;100.00
42001;BME280;27689;48.390;10.856;2023-02-02T15:06:33;96877.03;;;4.64;100.00
42001;BME280;27689;48.390;10.856;2023-02-02T15:15:26;96869.56;;;4.59;100.00
42001;BME280;27689;48.390;10.856;2023-02-02T15:18:16;96881.03;;;4.70;100.00
42001;BME280;27689;48.390;10.856;2023-02-02T15:21:05;96874.00;;;4.57;100.00
42001;BME280;27689;48.390;10.856;2023-02-02T15:23:50;96874.94;;;4.56;100.00
42001;BME280;27689;48.390;10.856;2023-02-02T15:26:39;96897.44;;;4.56;100.00
42001;BME280;27689;48.390;10.856;2023-02-02T15:29:34;96889.28;;;4.62;100.00
42001;BME280;27689;48.390;10.856;2023-02-02T15:32:23;96894.75;;;4.57;100.00
42001;BME280;27689;48.390;10.856;2023-02-02T15:35:16;96887.25;;;4.53;100.00
42001;BME280;27689;48.390;10.856;2023-02-02T15:38:05;96900.78;;;4.58;100.00
42001;BME280;27689;48.390;10.856;2023-02-02T15:40:50;96902.06;;;4.65;100.00
42001;BME280;27689;48.390;10.856;2023-02-02T15:43:34;96907.84;;;4.70;100.00
42001;BME280;27689;48.390;10.856;2023-02-02T15:46:20;96910.97;;;4.61;100.00
42001;BME280;27689;48.390;10.856;2023-02-02T15:52:13;96916.06;;;4.63;100.00
42001;BME280;27689;48.390;10.856;2023-02-02T15:55:01;96936.66;;;4.66;100.00
42001;BME280;27689;48.390;10.856;2023-02-02T15:57:45;96942.59;;;4.68;100.00
42001;BME280;27689;48.390;10.856;2023-02-02T16:00:33;96937.47;;;4.66;100.00
42001;BME280;27689;48.390;10.856;2023-02-02T16:03:23;96939.31;;;4.64;100.00
42001;BME280;27689;48.390;10.856;2023-02-02T16:06:09;96942.75;;;4.65;100.00
42001;BME280;27689;48.390;10.856;2023-02-02T16:08:53;96952.69;;;4.58;100.00
42001;BME280;27689;48.390;10.856;2023-02-02T16:11:41;96956.47;;;4.52;100.00
42001;BME280;27689;48.390;10.856;2023-02-02T16:14:24;96962.41;;;4.54;100.00
42001;BME280;27689;48.390;10.856;2023-02-02T16:17:17;96963.31;;;4.53;100.00
42001;BME280;27689;48.390;10.856;2023-02-02T16:20:09;96975.75;;;4.63;100.00
42001;BME280;27689;48.390;10.856;2023-02-02T16:22:56;96961.00;;;4.63;100.00
42001;BME280;27689;48.390;10.856;2023-02-02T16:25:50;96970.56;;;4.63;100.00
42001;BME280;27689;48.390;10.856;2023-02-02T16:28:35;96975.22;;;4.72;100.00
42001;BME280;27689;48.390;10.856;2023-02-02T16:31:19;96971.13;;;4.68;100.00
42001;BME280;27689;48.390;10.856;2023-02-02T16:34:03;96991.06;;;4.67;100.00
42001;BME280;27689;48.390;10.856;2023-02-02T16:39:55;96996.91;;;4.71;100.00
42001;BME280;27689;48.390;10.856;2023-02-02T16:42:39;96990.97;;;4.69;100.00
42001;BME280;27689;48.390;10.856;2023-02-02T16:45:31;97013.59;;;4.67;100.00
42001;BME280;27689;48.390;10.856;2023-02-02T16:48:25;97007.59;;;4.80;100.00
42001;BME280;27689;48.390;10.856;2023-02-02T16:56:58;97019.44;;;4.70;100.00